MUVR/VRA METAR and TAF weather

Enter ICAO airport designator
Station Type Date Time Source
MUVR METAR 2019/04/25 17:50 UTC NOAA

MUVR 251750Z VRB04KT 9000 SCT020 32/16 Q1015


Station Type Date Time Source
MUVR Decoded METAR 2019/04/25 17:50 UTC NOAA

Varadero, Matanzas, Cuba (MUVR) 23-08N 081-17W 3M
Apr 25, 2019 - 01:50 PM EDT / 2019.04.25 1750 UTC
Wind: Variable at 5 MPH (4 KT):0
Visibility: 5 mile(s):0
Sky conditions: partly cloudy
Temperature: 89 F (32 C)
Dew Point: 60 F (16 C)
Relative Humidity: 38%
Pressure (altimeter): 29.97 in. Hg (1015 hPa)
ob: MUVR 251750Z VRB04KT 9000 SCT020 32/16 Q1015
cycle: 18

Station Type Date Time Source
MUVR TAF 2019/04/25 18:03 UTC NOAA

TAF MUVR 251700Z 2518/2618 17008KT 9000 FEW020
BECMG 2519/2521 08010KT SCT020
BECMG 2601/2603 12005KT FEW020

Example: see airport list